Mesita, Colorado
Current Conditions -  °F | °C
As of 10:52 AM on Sunday 25 Jan 2015 (Local Time) from KALS Reporting Station
Clear Clear  
Wind Chill:   Ceiling: Unl
Heat Index:   Visibility: 10mi
Dew Point: -9°   Wind: 0mph
Humidity: 41%   Direction: NA
Pressure: 30.33"   Gusts: NA
Location:  37.0838°N, 105.58°W
Report Text: KALS 251752Z AUTO 00000KT 10SM CLR 03/M09 A3033 RMK AO2 SLP301 T00331089 10033 21156 53003
Loading
Personal Weather Stations






























Interactive Weather Map New forecast layout! Learn more

10-Day Weather Forecast

Advertisements
Track Severe Weather on mobile